Time;durP1;ratioP1;P1;durP2;ratioP2;P2;SDS_P1;SDS_P2;PMS_P1;PMS_P2;Temp;Humidity;BMP_temperature;BMP_pressure;BME280_temperature;BME280_humidity;BME280_pressure;Samples;Min_cycle;Max_cycle;Signal;HPM_P1;HPM_P2
2022/10/11 00:02:03;;;;;;;10.50;7.47;;;;;;;9.15;85.48;96230.57;1716546;83;21060;-66
2022/10/11 00:04:30;;;;;;;11.63;6.87;;;;;;;9.25;85.58;96234.52;1716552;83;20995;-66
2022/10/11 00:06:56;;;;;;;13.00;6.70;;;;;;;9.39;85.34;96229.63;1716244;83;21015;-66
2022/10/11 00:09:23;;;;;;;9.57;6.40;;;;;;;9.39;84.64;96226.99;1716556;83;21011;-66
2022/10/11 00:11:49;;;;;;;8.20;6.53;;;;;;;9.33;84.94;96224.40;1716271;83;21079;-65
2022/10/11 00:14:16;;;;;;;9.40;5.90;;;;;;;9.36;84.66;96225.25;1716255;84;21023;-66
2022/10/11 00:16:43;;;;;;;9.27;6.23;;;;;;;9.40;85.01;96221.73;1716339;83;21059;-66
2022/10/11 00:19:11;;;;;;;10.13;5.93;;;;;;;9.51;85.14;96217.73;1716362;83;21059;-66
2022/10/11 00:21:38;;;;;;;9.20;6.42;;;;;;;9.54;84.41;96216.39;1716246;84;21031;-66
2022/10/11 00:24:06;;;;;;;44.07;17.00;;;;;;;9.52;84.27;96211.56;1716121;83;21007;-66
2022/10/11 00:26:33;;;;;;;67.57;24.53;;;;;;;9.36;83.67;96217.34;1716395;84;21043;-66
2022/10/11 00:28:59;;;;;;;31.00;14.00;;;;;;;9.26;84.16;96215.63;1716199;83;21004;-66
2022/10/11 00:31:26;;;;;;;14.83;8.27;;;;;;;9.33;84.94;96212.55;1716063;83;20995;-66
2022/10/11 00:33:54;;;;;;;14.00;8.13;;;;;;;9.38;84.82;96209.00;1716647;83;20984;-66
2022/10/11 00:36:22;;;;;;;15.07;8.13;;;;;;;9.43;84.81;96211.63;1716406;83;21047;-66
2022/10/11 00:38:48;;;;;;;20.33;9.13;;;;;;;9.34;84.29;96215.60;1716011;83;21047;-66
2022/10/11 00:41:16;;;;;;;16.13;8.63;;;;;;;9.28;84.72;96209.92;1716671;83;21033;-66
2022/10/11 00:43:44;;;;;;;17.10;8.50;;;;;;;9.20;83.55;96209.95;1716327;83;21031;-66
2022/10/11 00:46:19;;;;;;;12.20;8.00;;;;;;;9.17;84.58;96210.38;1716531;83;21035;-66
2022/10/11 00:48:51;;;;;;;12.10;6.47;;;;;;;9.24;84.87;96213.44;1716225;84;21039;-66
2022/10/11 00:51:29;;;;;;;8.93;6.70;;;;;;;9.19;83.98;96207.31;1703301;84;21031;-66
2022/10/11 00:53:55;;;;;;;10.73;6.13;;;;;;;9.13;84.12;96211.30;1716855;82;21043;-66
2022/10/11 00:56:27;;;;;;;8.13;5.80;;;;;;;9.09;84.43;96214.36;1716318;84;21054;-66
2022/10/11 00:58:56;;;;;;;11.90;6.97;;;;;;;9.16;84.67;96212.15;1716001;84;21062;-66
2022/10/11 01:01:23;;;;;;;8.60;6.53;;;;;;;9.09;84.17;96207.78;1716324;84;21074;-66
2022/10/11 01:03:50;;;;;;;13.60;7.63;;;;;;;9.14;84.51;96213.03;1716181;83;21006;-66
2022/10/11 01:06:17;;;;;;;14.30;8.03;;;;;;;9.10;83.58;96208.23;1716590;83;21015;-66
2022/10/11 01:08:44;;;;;;;12.53;6.67;;;;;;;8.92;83.03;96206.53;1716222;84;21505;-66
2022/10/11 01:11:18;;;;;;;9.43;6.60;;;;;;;8.78;83.63;96208.30;1715866;84;21082;-66
2022/10/11 01:14:10;;;;;;;10.47;6.57;;;;;;;8.72;83.72;96205.25;1691843;83;21548;-66
2022/10/11 01:16:44;;;;;;;9.90;6.80;;;;;;;8.63;83.51;96205.25;1725017;82;21047;-66
2022/10/11 01:19:33;;;;;;;7.87;5.63;;;;;;;8.55;83.70;96215.78;1723287;83;21102;-66
2022/10/11 01:22:14;;;;;;;7.77;6.13;;;;;;;8.49;84.97;96207.01;1724356;82;21027;-65
2022/10/11 01:25:06;;;;;;;6.90;5.90;;;;;;;8.43;84.95;96211.39;1723184;83;21050;-66
2022/10/11 01:28:17;;;;;;;12.97;7.67;;;;;;;8.37;85.58;96209.20;1724407;83;21019;-66
2022/10/11 01:30:45;;;;;;;14.10;8.10;;;;;;;8.35;85.34;96205.69;1724085;83;21050;-66
2022/10/11 01:33:25;;;;;;;11.80;8.53;;;;;;;8.21;85.54;96208.29;1724401;83;21051;-66
2022/10/11 01:36:31;;;;;;;9.87;6.47;;;;;;;8.17;85.52;96208.74;1723460;83;21134;-66
2022/10/11 01:39:05;;;;;;;8.47;6.20;;;;;;;8.13;85.74;96202.16;1720002;83;21035;-66
2022/10/11 01:41:42;;;;;;;8.80;5.50;;;;;;;8.13;86.02;96205.66;1724378;82;20991;-66
2022/10/11 01:44:11;;;;;;;14.67;7.37;;;;;;;8.10;86.04;96204.80;1695704;83;20987;-66
2022/10/11 01:46:38;;;;;;;9.57;6.33;;;;;;;8.10;86.23;96209.61;1724198;82;21030;-66
2022/10/11 01:49:05;;;;;;;10.80;6.60;;;;;;;8.08;85.65;96200.84;1724317;83;21114;-66
2022/10/11 01:51:42;;;;;;;11.03;6.23;;;;;;;8.12;86.41;96209.17;1723804;83;21086;-65
2022/10/11 01:54:46;;;;;;;10.70;6.93;;;;;;;8.15;86.55;96202.60;1724122;82;21477;-66
2022/10/11 01:58:01;;;;;;;11.95;7.47;;;;;;;8.13;85.94;96208.73;1724205;82;21043;-66
2022/10/11 02:00:39;;;;;;;10.37;6.30;;;;;;;8.06;86.22;96203.89;1724427;83;21015;-66
2022/10/11 02:03:22;;;;;;;11.07;5.80;;;;;;;8.11;86.62;96196.89;1723991;83;21087;-66
2022/10/11 02:06:03;;;;;;;6.85;5.55;;;;;;;8.18;86.40;96196.47;1724473;82;21013;-66
2022/10/11 02:08:44;;;;;;;7.97;5.87;;;;;;;8.23;86.43;96191.64;1724039;83;21027;-66
2022/10/11 02:11:30;;;;;;;10.17;5.87;;;;;;;8.26;86.10;96197.34;1724274;82;21042;-66
2022/10/11 02:14:17;;;;;;;7.17;5.47;;;;;;;8.28;85.70;96192.09;1719707;83;21051;-66
2022/10/11 02:16:49;;;;;;;11.50;5.60;;;;;;;8.31;86.04;96186.38;1716528;83;21060;-66
2022/10/11 02:19:19;;;;;;;6.60;5.90;;;;;;;8.30;86.10;96183.77;1716475;83;21034;-66
2022/10/11 02:21:51;;;;;;;7.87;5.33;;;;;;;8.31;86.69;96189.45;1716289;83;21015;-66
2022/10/11 02:24:31;;;;;;;11.03;5.90;;;;;;;8.34;86.33;96180.25;1716203;83;21079;-66
2022/10/11 02:27:02;;;;;;;10.20;6.27;;;;;;;8.41;86.93;96180.72;1716193;82;21050;-65
2022/10/11 02:29:33;;;;;;;8.27;5.67;;;;;;;8.47;86.14;96175.88;1740962;81;21509;-66
2022/10/11 02:32:00;;;;;;;6.63;5.50;;;;;;;8.48;86.20;96179.84;1716420;84;21031;-66
2022/10/11 02:34:41;;;;;;;10.47;6.23;;;;;;;8.57;86.62;96174.58;1716293;83;21020;-66
2022/10/11 02:37:32;;;;;;;11.03;6.00;;;;;;;8.58;86.14;96171.06;1715003;84;20984;-66
2022/10/11 02:40:24;;;;;;;18.97;5.77;;;;;;;8.65;86.62;96167.55;1716333;84;21027;-66
2022/10/11 02:43:10;;;;;;;11.07;6.43;;;;;;;8.72;86.45;96177.63;1716301;84;21079;-66
2022/10/11 02:45:41;;;;;;;8.93;6.50;;;;;;;8.77;85.38;96170.59;1716501;83;20996;-66
2022/10/11 02:48:10;;;;;;;11.57;6.47;;;;;;;8.80;85.56;96172.34;1716415;84;21004;-66
2022/10/11 02:50:39;;;;;;;10.03;5.73;;;;;;;8.79;85.36;96170.58;1716424;83;21070;-66
2022/10/11 02:53:06;;;;;;;8.43;5.50;;;;;;;8.82;85.29;96174.50;1686510;84;21014;-66
2022/10/11 02:55:34;;;;;;;10.30;6.27;;;;;;;8.71;84.89;96174.54;1716169;83;21031;-66
2022/10/11 02:58:01;;;;;;;12.10;6.10;;;;;;;8.60;84.54;96178.52;1716145;83;21106;-66
2022/10/11 03:00:29;;;;;;;9.87;5.70;;;;;;;8.57;84.71;96180.28;1716505;83;20987;-66
2022/10/11 03:02:55;;;;;;;11.17;6.10;;;;;;;8.55;84.76;96182.03;1716520;83;21035;-66
2022/10/11 03:05:22;;;;;;;12.03;6.03;;;;;;;8.54;84.97;96178.53;1716120;83;21043;-66
2022/10/11 03:07:49;;;;;;;12.80;5.33;;;;;;;8.59;85.53;96177.19;1716676;84;21002;-66
2022/10/11 03:10:16;;;;;;;8.53;5.63;;;;;;;8.65;85.34;96180.70;1715900;84;21090;-66
2022/10/11 03:12:43;;;;;;;11.27;6.80;;;;;;;8.74;85.65;96177.16;1740725;82;21039;-66
2022/10/11 03:15:10;;;;;;;12.93;7.43;;;;;;;8.77;85.82;96176.27;1716434;83;21505;-66
2022/10/11 03:17:37;;;;;;;13.43;7.37;;;;;;;8.80;85.92;96178.92;1716063;83;21043;-66
2022/10/11 03:20:06;;;;;;;11.43;6.70;;;;;;;8.88;86.05;96178.01;1716660;83;20983;-66
2022/10/11 03:22:33;;;;;;;14.13;6.90;;;;;;;9.00;86.12;96176.23;1716088;84;21075;-66
2022/10/11 03:24:59;;;;;;;11.37;6.33;;;;;;;9.14;86.14;96175.73;1716296;84;21018;-66
2022/10/11 03:27:26;;;;;;;10.90;7.10;;;;;;;9.25;85.83;96172.63;1716568;83;20991;-66
2022/10/11 03:29:52;;;;;;;9.13;6.00;;;;;;;9.33;85.28;96166.02;1716479;83;20999;-66
2022/10/11 03:32:19;;;;;;;12.13;6.37;;;;;;;9.36;84.67;96170.39;1716497;83;21018;-66
2022/10/11 03:34:45;;;;;;;58.37;30.27;;;;;;;9.34;84.62;96167.75;1716327;83;21047;-66
2022/10/11 03:37:12;;;;;;;83.13;46.63;;;;;;;9.40;84.72;96172.11;1716295;83;21055;-66
2022/10/11 03:39:39;;;;;;;71.25;37.55;;;;;;;9.48;84.71;96171.20;1716485;83;21011;-66
2022/10/11 03:42:06;;;;;;;50.97;28.90;;;;;;;9.49;83.62;96167.67;1716363;84;20996;-66
2022/10/11 03:44:32;;;;;;;37.33;22.17;;;;;;;9.54;83.95;96167.20;1740978;81;20983;-66
2022/10/11 03:46:59;;;;;;;24.40;14.33;;;;;;;9.51;83.36;96160.64;1716170;83;21138;-66
2022/10/11 03:49:26;;;;;;;23.43;14.07;;;;;;;9.46;82.93;96164.19;1716508;84;21058;-66
2022/10/11 03:51:52;;;;;;;31.33;20.03;;;;;;;9.30;83.20;96162.95;1716365;84;20952;-66
2022/10/11 03:54:19;;;;;;;22.43;16.13;;;;;;;9.20;83.73;96158.61;1716562;84;21059;-66
2022/10/11 03:56:45;;;;;;;36.67;18.17;;;;;;;9.22;84.24;96161.22;1716529;83;21040;-65
2022/10/11 03:59:12;;;;;;;12.90;8.88;;;;;;;9.17;84.08;96165.63;1716269;83;21501;-66
2022/10/11 04:01:39;;;;;;;11.27;7.83;;;;;;;9.12;83.82;96169.59;1716099;83;21079;-65
2022/10/11 04:04:06;;;;;;;23.73;14.10;;;;;;;9.14;83.88;96157.75;1716384;83;21011;-66
2022/10/11 04:06:33;;;;;;;31.97;20.70;;;;;;;9.04;84.53;96168.30;1716104;83;21043;-66
2022/10/11 04:09:00;;;;;;;28.63;19.43;;;;;;;8.98;84.79;96167.02;1716468;83;21461;-68
2022/10/11 04:11:27;;;;;;;53.17;28.43;;;;;;;8.93;84.99;96167.47;1716243;84;21075;-64
2022/10/11 04:13:53;;;;;;;35.23;24.13;;;;;;;8.93;84.92;96167.47;1716302;83;21032;-63
2022/10/11 04:16:20;;;;;;;31.37;20.77;;;;;;;8.90;84.98;96168.81;1716116;84;21042;-64
2022/10/11 04:18:47;;;;;;;40.83;27.27;;;;;;;8.85;85.02;96169.27;1716662;84;21003;-64
2022/10/11 04:21:13;;;;;;;50.00;34.00;;;;;;;8.80;85.67;96171.90;1716009;83;21164;-64
2022/10/11 04:23:40;;;;;;;50.77;33.80;;;;;;;8.77;85.70;96170.59;1716382;84;21059;-64
2022/10/11 04:26:07;;;;;;;38.63;24.87;;;;;;;8.79;86.53;96167.94;1716371;84;20995;-64
2022/10/11 04:28:34;;;;;;;28.80;19.77;;;;;;;8.81;86.17;96167.06;1716378;84;21007;-64
2022/10/11 04:31:03;;;;;;;26.10;18.87;;;;;;;8.82;86.64;96174.09;1716354;83;21505;-63
2022/10/11 04:33:30;;;;;;;56.87;31.83;;;;;;;8.79;85.96;96171.44;1716314;84;21063;-64
2022/10/11 04:35:57;;;;;;;46.50;27.90;;;;;;;8.81;85.76;96164.42;1716128;83;21146;-63
2022/10/11 04:38:23;;;;;;;34.60;22.90;;;;;;;8.82;86.27;96173.19;1716358;83;21019;-64
2022/10/11 04:40:50;;;;;;;30.13;20.10;;;;;;;8.84;86.61;96166.17;1715807;83;21087;-64
2022/10/11 04:43:18;;;;;;;25.53;16.17;;;;;;;8.93;87.00;96168.80;1716827;83;21470;-64
2022/10/11 04:45:45;;;;;;;28.23;19.77;;;;;;;9.01;87.21;96164.38;1716143;84;21082;-64
2022/10/11 04:48:13;;;;;;;20.43;12.87;;;;;;;9.06;87.11;96167.86;1715872;84;21031;-64
2022/10/11 04:50:40;;;;;;;18.73;12.33;;;;;;;9.10;86.80;96168.74;1716400;83;21038;-64
2022/10/11 04:53:07;;;;;;;24.13;13.87;;;;;;;9.09;86.36;96173.11;1716403;84;21023;-64
2022/10/11 04:55:34;;;;;;;25.17;15.80;;;;;;;9.08;86.12;96171.37;1715206;83;21039;-67
2022/10/11 04:58:01;;;;;;;22.40;15.63;;;;;;;9.09;86.63;96171.80;1715628;84;21031;-63
2022/10/11 05:00:27;;;;;;;23.90;15.33;;;;;;;9.19;86.71;96173.09;1715090;83;21687;-64
2022/10/11 05:02:54;;;;;;;24.83;16.20;;;;;;;9.24;86.78;96168.23;1715893;83;21346;-66
2022/10/11 05:05:21;;;;;;;31.30;17.70;;;;;;;9.32;86.48;96166.87;1716355;83;21517;-66
2022/10/11 05:07:47;;;;;;;28.27;18.53;;;;;;;9.22;85.49;96170.02;1715275;83;21074;-65
2022/10/11 05:10:14;;;;;;;60.30;35.00;;;;;;;9.18;85.97;96165.64;1715213;83;21185;-67
2022/10/11 05:12:41;;;;;;;51.50;31.90;;;;;;;9.22;85.80;96166.48;1715743;83;21126;-67
2022/10/11 05:15:09;;;;;;;50.30;31.07;;;;;;;9.28;85.95;96162.53;1716095;84;21000;-65
2022/10/11 05:17:36;;;;;;;42.40;27.20;;;;;;;9.26;86.16;96163.84;1715764;84;21515;-66
2022/10/11 05:20:03;;;;;;;40.63;26.55;;;;;;;9.28;86.58;96169.11;1715759;84;21093;-67
2022/10/11 05:22:30;;;;;;;31.07;22.17;;;;;;;9.39;87.16;96166.42;1716211;83;20988;-66
2022/10/11 05:24:57;;;;;;;34.70;20.40;;;;;;;9.46;86.71;96169.02;1716177;84;21481;-66
2022/10/11 05:27:24;;;;;;;25.70;17.33;;;;;;;9.48;86.82;96168.57;1715139;83;21098;-66
2022/10/11 05:29:50;;;;;;;20.27;13.10;;;;;;;9.56;86.96;96175.11;1714486;83;21146;-67
2022/10/11 05:32:17;;;;;;;22.43;17.27;;;;;;;9.68;86.85;96172.86;1715254;84;21074;-68
2022/10/11 05:34:44;;;;;;;24.57;16.97;;;;;;;9.72;86.06;96170.62;1716221;83;20980;-65
2022/10/11 05:37:10;;;;;;;28.03;17.80;;;;;;;9.68;85.86;96175.50;1715658;83;21011;-67
2022/10/11 05:39:37;;;;;;;30.60;19.65;;;;;;;9.75;86.27;96173.23;1716424;84;20967;-68
2022/10/11 05:42:04;;;;;;;31.55;20.92;;;;;;;9.83;86.34;96177.17;1716239;83;21027;-66
2022/10/11 05:44:30;;;;;;;34.48;26.05;;;;;;;9.91;86.45;96180.63;1716168;83;21071;-69
2022/10/11 05:46:57;;;;;;;28.57;21.65;;;;;;;10.02;86.47;96182.73;1716014;84;21115;-65
2022/10/11 05:49:24;;;;;;;21.20;17.45;;;;;;;10.08;85.85;96180.06;1716568;83;20999;-65
2022/10/11 05:51:50;;;;;;;23.87;18.80;;;;;;;10.09;85.31;96191.03;1716097;83;21032;-66
2022/10/11 05:54:17;;;;;;;23.80;18.50;;;;;;;10.17;85.45;96194.48;1716397;84;21036;-66
2022/10/11 05:56:44;;;;;;;19.67;15.08;;;;;;;10.18;85.23;96201.52;1715947;84;21107;-65
2022/10/11 05:59:11;;;;;;;17.75;11.78;;;;;;;10.17;85.04;96205.48;1716403;83;21494;-66
2022/10/11 06:01:37;;;;;;;84.03;36.53;;;;;;;10.16;85.06;96205.93;1716580;83;21019;-66
2022/10/11 06:04:04;;;;;;;44.03;23.77;;;;;;;10.10;84.58;96209.03;1712400;84;21043;-66
2022/10/11 06:06:31;;;;;;;47.40;25.72;;;;;;;10.14;85.18;96207.70;1708669;84;21011;-67
2022/10/11 06:08:58;;;;;;;47.48;27.00;;;;;;;10.13;84.69;96206.37;1713489;84;21047;-68
2022/10/11 06:11:27;;;;;;;30.72;19.12;;;;;;;10.08;84.91;96209.48;1714094;83;21209;-74
2022/10/11 06:13:56;;;;;;;36.63;22.55;;;;;;;10.13;85.46;96211.23;1714804;83;21130;-70
2022/10/11 06:16:24;;;;;;;35.48;23.32;;;;;;;10.26;85.53;96205.42;1723191;83;21520;-65
2022/10/11 06:18:56;;;;;;;31.05;20.05;;;;;;;10.37;85.24;96215.91;1723187;83;21173;-68
2022/10/11 06:21:24;;;;;;;26.12;19.17;;;;;;;10.43;85.33;96214.53;1722690;83;21643;-69
2022/10/11 06:23:51;;;;;;;31.27;19.92;;;;;;;10.54;85.36;96220.61;1722686;83;21105;-72
2022/10/11 06:26:18;;;;;;;27.50;19.27;;;;;;;10.52;84.76;96215.78;1722161;83;21109;-66
2022/10/11 06:28:45;;;;;;;29.72;21.85;;;;;;;10.54;84.46;96218.42;1722594;82;21098;-69
2022/10/11 06:31:12;;;;;;;25.85;20.57;;;;;;;10.51;85.05;96223.28;1722229;83;22315;-67
2022/10/11 06:33:39;;;;;;;31.12;20.12;;;;;;;10.64;85.99;96220.55;1722670;83;21039;-67
2022/10/11 06:36:10;;;;;;;18.95;12.98;;;;;;;10.83;86.19;96222.10;1723071;83;21027;-69
2022/10/11 06:38:36;;;;;;;18.17;13.05;;;;;;;11.03;85.96;96220.59;1723696;82;21110;-68
2022/10/11 06:41:16;;;;;;;17.48;11.90;;;;;;;11.23;85.87;96218.61;1723179;82;21101;-67
2022/10/11 06:43:43;;;;;;;11.78;9.15;;;;;;;11.45;85.71;96215.73;1723563;81;21067;-71
2022/10/11 06:46:10;;;;;;;12.05;8.43;;;;;;;11.61;85.23;96208.02;1723520;82;21121;-80
2022/10/11 06:48:45;;;;;;;12.80;7.97;;;;;;;11.70;83.76;96205.72;1723442;83;21113;-68
2022/10/11 06:51:13;;;;;;;14.55;8.53;;;;;;;11.78;83.73;96208.27;1723912;82;21050;-66
2022/10/11 06:53:40;;;;;;;9.90;7.92;;;;;;;11.81;83.78;96206.89;1724025;83;21034;-66
2022/10/11 06:56:11;;;;;;;8.88;6.83;;;;;;;11.92;83.63;96201.06;1723905;82;21026;-67
2022/10/11 06:58:39;;;;;;;10.35;6.95;;;;;;;12.02;82.81;96206.64;1722538;82;21101;-66
2022/10/11 07:01:10;;;;;;;12.28;6.90;;;;;;;12.18;82.64;96213.02;1723182;83;21019;-65
2022/10/11 07:03:37;;;;;;;15.95;7.25;;;;;;;12.31;82.67;96213.25;1723477;83;21072;-65
2022/10/11 07:06:09;;;;;;;8.68;6.45;;;;;;;12.53;82.97;96218.64;1723816;83;21150;-65
2022/10/11 07:08:36;;;;;;;7.20;6.50;;;;;;;12.73;81.77;96215.66;1723538;82;21039;-66
2022/10/11 07:11:08;;;;;;;8.68;6.72;;;;;;;12.94;82.07;96216.18;1722468;83;21579;-65
2022/10/11 07:13:37;;;;;;;13.28;7.60;;;;;;;13.11;81.97;96215.88;1722406;83;21082;-65
2022/10/11 07:16:09;;;;;;;12.70;7.53;;;;;;;13.35;82.16;96218.08;1723285;83;21043;-65
2022/10/11 07:18:37;;;;;;;9.23;6.58;;;;;;;13.63;81.79;96216.20;1723532;83;21114;-66
2022/10/11 07:21:10;;;;;;;12.50;6.67;;;;;;;13.75;80.61;96216.41;1723247;83;21077;-65
2022/10/11 07:23:37;;;;;;;12.98;7.20;;;;;;;13.84;80.35;96222.85;1722902;82;21103;-65
2022/10/11 07:26:05;;;;;;;11.43;7.03;;;;;;;13.97;79.44;96223.00;1712015;83;21499;-65
2022/10/11 07:28:34;;;;;;;9.58;7.97;;;;;;;14.11;79.56;96220.48;1715369;83;21484;-65
2022/10/11 07:31:12;;;;;;;13.05;8.60;;;;;;;14.21;79.40;96222.02;1723000;83;21121;-65
2022/10/11 07:33:39;;;;;;;14.10;9.13;;;;;;;14.33;79.32;96218.23;1722679;83;21086;-65
2022/10/11 07:36:07;;;;;;;16.97;11.48;;;;;;;14.39;77.79;96221.63;1722797;83;21035;-67
2022/10/11 07:38:33;;;;;;;16.40;9.58;;;;;;;14.34;77.54;96223.94;1723843;83;21484;-71
2022/10/11 07:41:05;;;;;;;11.33;8.90;;;;;;;14.34;77.41;96226.16;1723585;82;21093;-66
2022/10/11 07:43:32;;;;;;;13.58;8.63;;;;;;;14.33;77.47;96227.52;1723335;83;21010;-66
2022/10/11 07:46:02;;;;;;;17.40;8.30;;;;;;;14.28;77.21;96220.98;1723461;83;21085;-64
2022/10/11 07:48:27;;;;;;;15.00;8.83;;;;;;;14.23;77.24;96225.06;1723519;81;21090;-66
2022/10/11 07:51:07;;;;;;;15.48;10.13;;;;;;;14.24;77.60;96226.83;1723040;82;21082;-65
2022/10/11 07:53:46;;;;;;;18.42;10.35;;;;;;;14.24;77.49;96222.84;1724833;82;21011;-67
2022/10/11 07:56:17;;;;;;;13.58;9.30;;;;;;;14.20;77.29;96227.80;1695704;83;21078;-66
2022/10/11 07:58:44;;;;;;;14.75;9.35;;;;;;;14.11;77.36;96229.78;1723412;82;21070;-66
2022/10/11 08:01:11;;;;;;;11.65;9.28;;;;;;;14.04;77.71;96224.62;1723461;83;21097;-67
2022/10/11 08:03:38;;;;;;;17.48;10.45;;;;;;;14.05;77.85;96221.50;1722525;83;21524;-66
2022/10/11 08:06:08;;;;;;;11.97;9.15;;;;;;;14.05;77.87;96226.34;1723163;83;21108;-65
2022/10/11 08:08:36;;;;;;;18.57;14.20;;;;;;;14.08;77.76;96224.08;1748220;82;21026;-66
2022/10/11 08:11:03;;;;;;;13.05;8.75;;;;;;;14.10;77.70;96224.92;1723937;83;21461;-66
2022/10/11 08:13:30;;;;;;;12.00;8.20;;;;;;;14.12;77.46;96220.92;1723569;82;21038;-67
2022/10/11 08:15:57;;;;;;;12.58;8.73;;;;;;;14.19;77.77;96226.52;1733623;82;21066;-68
2022/10/11 08:18:24;;;;;;;11.53;9.20;;;;;;;14.26;77.45;96234.31;1708083;84;21125;-69
2022/10/11 08:20:51;;;;;;;14.85;8.40;;;;;;;14.34;77.37;96227.92;1707876;83;21079;-66
2022/10/11 08:23:19;;;;;;;9.75;8.03;;;;;;;14.43;77.31;96235.22;1708067;83;21049;-71
2022/10/11 08:25:47;;;;;;;21.50;16.50;;;;;;;14.53;76.54;96236.34;1708640;83;21133;-67
2022/10/11 08:28:16;;;;;;;11.50;7.87;;;;;;;14.63;76.64;96225.95;1709395;84;21465;-68
2022/10/11 08:30:51;;;;;;;15.45;10.88;;;;;;;14.71;76.46;96228.81;1708585;84;21043;-65
2022/10/11 08:33:19;;;;;;;16.12;12.90;;;;;;;14.80;76.47;96226.41;1708571;83;21129;-65
2022/10/11 08:35:47;;;;;;;19.30;10.85;;;;;;;14.93;76.53;96227.83;1738796;82;21108;-65
2022/10/11 08:38:14;;;;;;;13.55;9.13;;;;;;;15.06;76.48;96232.38;1708289;84;21066;-65
2022/10/11 08:40:52;;;;;;;13.20;7.35;;;;;;;15.12;75.97;96224.26;1708746;84;21007;-74
2022/10/11 08:43:49;;;;;;;15.93;7.78;;;;;;;15.23;74.54;96226.63;1739248;82;21085;-72
2022/10/11 08:46:21;;;;;;;23.02;8.03;;;;;;;15.33;75.00;96235.23;1709692;82;21234;-73
2022/10/11 08:48:50;;;;;;;11.85;7.30;;;;;;;15.32;73.86;96226.39;1739589;82;21042;-70
2022/10/11 08:51:30;;;;;;;13.85;7.22;;;;;;;15.48;74.17;96228.63;1738149;82;21053;-74
2022/10/11 08:54:17;;;;;;;11.05;6.45;;;;;;;15.54;73.87;96227.97;1739887;82;21524;-69
2022/10/11 08:56:45;;;;;;;11.60;6.28;;;;;;;15.63;73.79;96220.20;1740143;82;21021;-67
2022/10/11 08:59:20;;;;;;;12.45;6.37;;;;;;;15.74;74.01;96221.26;1740227;82;21014;-70
2022/10/11 09:01:55;;;;;;;10.75;6.95;;;;;;;15.83;73.46;96218.34;1739850;82;21218;-74
2022/10/11 09:04:22;;;;;;;11.53;6.50;;;;;;;15.87;72.77;96219.11;1739965;82;21524;-67
2022/10/11 09:07:06;;;;;;;9.18;6.67;;;;;;;15.91;72.10;96218.98;1738880;82;21113;-66
2022/10/11 09:10:06;;;;;;;10.53;7.08;;;;;;;15.96;72.48;96217.05;1740468;82;21544;-66
2022/10/11 09:12:59;;;;;;;13.88;8.18;;;;;;;16.07;72.51;96218.52;1739057;82;21098;-66
2022/10/11 09:15:45;;;;;;;17.73;9.00;;;;;;;16.12;71.76;96216.12;1734815;82;21058;-66
2022/10/11 09:18:51;;;;;;;15.23;8.88;;;;;;;16.14;71.36;96221.41;1723834;82;21011;-66
2022/10/11 09:21:35;;;;;;;11.95;7.15;;;;;;;16.12;71.12;96214.79;1723846;82;21381;-67
2022/10/11 09:24:25;;;;;;;9.10;7.42;;;;;;;16.17;71.48;96221.31;1724728;83;21027;-66
2022/10/11 09:26:59;;;;;;;12.45;9.25;;;;;;;16.21;71.13;96220.31;1724496;83;21031;-66
2022/10/11 09:29:38;;;;;;;8.68;7.55;;;;;;;16.25;70.80;96217.95;1724512;83;21525;-66
2022/10/11 09:32:15;;;;;;;211.90;175.45;;;;;;;16.23;70.09;96216.68;1723413;83;21167;-66
2022/10/11 09:34:42;;;;;;;16.42;12.93;;;;;;;16.15;69.85;96219.15;1723204;83;21623;-67
2022/10/11 09:37:33;;;;;;;17.90;12.68;;;;;;;16.22;70.63;96220.70;1723420;83;21050;-66
2022/10/11 09:40:13;;;;;;;9.28;7.80;;;;;;;16.31;70.30;96220.91;1722898;83;21536;-66
2022/10/11 09:42:40;;;;;;;12.28;7.70;;;;;;;16.36;69.16;96222.96;1724130;82;21525;-66
2022/10/11 09:45:17;;;;;;;14.43;7.70;;;;;;;16.39;69.22;96224.19;1724512;82;21086;-66
2022/10/11 09:47:44;;;;;;;18.02;9.33;;;;;;;16.42;68.30;96224.95;1724576;82;21031;-66
2022/10/11 09:50:19;;;;;;;15.28;8.58;;;;;;;16.41;67.93;96217.89;1724803;82;21007;-66
2022/10/11 09:52:53;;;;;;;12.03;8.48;;;;;;;16.47;68.29;96218.63;1724910;82;21070;-66
2022/10/11 09:55:34;;;;;;;14.40;8.35;;;;;;;16.53;68.72;96222.41;1724010;82;21039;-66
2022/10/11 09:58:03;;;;;;;13.95;8.45;;;;;;;16.57;67.63;96220.06;1720677;83;21054;-66
2022/10/11 10:00:32;;;;;;;12.20;8.25;;;;;;;16.64;67.92;96220.28;1724777;82;21027;-67
2022/10/11 10:03:03;;;;;;;11.45;8.08;;;;;;;16.71;68.02;96219.64;1724449;82;21050;-67
2022/10/11 10:05:34;;;;;;;12.75;8.35;;;;;;;16.78;68.19;96219.42;1722900;83;21082;-66
2022/10/11 10:08:21;;;;;;;9.33;8.43;;;;;;;16.87;67.65;96212.89;1723953;82;21063;-67
2022/10/11 10:11:02;;;;;;;16.50;8.88;;;;;;;16.91;67.78;96211.88;1723530;83;21148;-66
2022/10/11 10:13:50;;;;;;;13.18;8.18;;;;;;;16.98;68.36;96204.06;1724119;83;21032;-66
2022/10/11 10:16:32;;;;;;;12.55;7.87;;;;;;;17.04;67.72;96199.87;1725089;82;21078;-66
2022/10/11 10:19:15;;;;;;;10.60;8.20;;;;;;;17.12;68.27;96204.07;1724513;82;20990;-67
2022/10/11 10:21:48;;;;;;;14.63;8.73;;;;;;;17.16;67.24;96199.02;1724619;83;21038;-66
2022/10/11 10:24:38;;;;;;;9.98;7.67;;;;;;;17.20;67.62;96196.20;1725157;83;21007;-66
2022/10/11 10:27:19;;;;;;;10.82;7.35;;;;;;;17.24;66.64;96193.84;1724838;82;21031;-66
2022/10/11 10:30:13;;;;;;;8.60;7.40;;;;;;;17.29;66.31;96193.69;1712688;82;20965;-67
2022/10/11 10:33:05;;;;;;;10.95;7.35;;;;;;;17.41;65.74;96189.25;1745077;82;21003;-66
2022/10/11 10:35:40;;;;;;;9.20;7.55;;;;;;;17.49;64.57;96193.84;1751759;81;21163;-67
2022/10/11 10:38:36;;;;;;;11.83;7.60;;;;;;;17.55;65.39;96196.73;1750345;82;21046;-66
2022/10/11 10:41:16;;;;;;;10.15;8.05;;;;;;;17.55;64.69;96196.73;1722199;82;21118;-66
2022/10/11 10:43:51;;;;;;;9.95;7.75;;;;;;;17.58;64.62;96197.09;1751735;82;21011;-66
2022/10/11 10:46:35;;;;;;;10.93;7.85;;;;;;;17.61;64.77;96196.97;1750740;82;21035;-66
2022/10/11 10:49:27;;;;;;;12.73;7.87;;;;;;;17.65;65.06;96194.14;1751798;82;21067;-66
2022/10/11 10:52:40;;;;;;;9.75;7.75;;;;;;;17.73;64.66;96187.18;1751702;82;20955;-66
2022/10/11 10:55:27;;;;;;;10.68;8.30;;;;;;;17.72;64.35;96188.98;1687467;84;21514;-66
2022/10/11 10:58:17;;;;;;;12.28;8.63;;;;;;;17.65;63.46;96188.80;1744094;82;21568;-66
2022/10/11 11:01:01;;;;;;;11.88;8.18;;;;;;;17.66;63.76;96188.33;1751802;82;21014;-66
2022/10/11 11:03:49;;;;;;;14.03;8.43;;;;;;;17.65;63.57;96187.47;1751551;82;21545;-67
2022/10/11 11:06:33;;;;;;;14.07;8.60;;;;;;;17.64;63.70;96180.41;1751789;82;21089;-67
2022/10/11 11:09:14;;;;;;;11.75;8.35;;;;;;;17.70;63.94;96180.16;1751918;82;20982;-67
2022/10/11 11:12:05;;;;;;;14.68;8.65;;;;;;;17.74;63.46;96174.27;1750223;82;21086;-67
2022/10/11 11:14:43;;;;;;;10.00;8.40;;;;;;;17.78;63.15;96176.34;1751567;82;21058;-67
2022/10/11 11:17:27;;;;;;;10.53;8.03;;;;;;;17.82;63.47;96178.88;1754204;82;21018;-67
2022/10/11 11:19:59;;;;;;;12.33;7.75;;;;;;;17.90;62.83;96175.91;1754258;82;21030;-67
2022/10/11 11:22:49;;;;;;;10.00;7.70;;;;;;;17.85;60.02;96176.08;1729500;82;21497;-66
2022/10/11 11:25:43;;;;;;;10.45;8.08;;;;;;;17.85;60.75;96180.56;1754279;82;21058;-66
2022/10/11 11:28:59;;;;;;;8.60;7.62;;;;;;;17.86;60.65;96177.81;1754850;82;21015;-66
2022/10/11 11:31:55;;;;;;;8.80;7.90;;;;;;;17.84;60.25;96174.80;1754560;82;21051;-66
2022/10/11 11:34:39;;;;;;;10.05;7.85;;;;;;;17.77;58.49;96174.14;1754745;82;21019;-66
2022/10/11 11:37:20;;;;;;;12.03;8.35;;;;;;;17.74;59.92;96169.79;1728788;82;21054;-66
2022/10/11 11:40:01;;;;;;;9.95;8.28;;;;;;;17.74;60.12;96164.45;1749161;82;21513;-66
2022/10/11 11:42:47;;;;;;;12.05;7.78;;;;;;;17.78;59.64;96156.32;1754246;82;21517;-67
2022/10/11 11:45:25;;;;;;;10.98;8.85;;;;;;;17.85;60.38;96157.87;1754804;82;21010;-66
2022/10/11 11:48:05;;;;;;;10.95;7.83;;;;;;;17.88;59.40;96159.08;1729411;82;21075;-66
2022/10/11 11:50:38;;;;;;;13.13;8.30;;;;;;;17.91;59.69;96161.63;1728469;82;20991;-66
2022/10/11 11:53:13;;;;;;;9.50;8.20;;;;;;;17.96;59.57;96159.64;1754837;82;21316;-66
2022/10/11 11:55:48;;;;;;;13.65;8.33;;;;;;;18.02;60.01;96154.09;1754759;82;21026;-66
2022/10/11 11:58:47;;;;;;;12.95;8.15;;;;;;;18.07;59.51;96157.44;1754610;82;21010;-66